sensor_id;sensor_type;location;lat;lon;timestamp;pressure;altitude;pressure_sealevel;temperature;humidity
73558;BME280;61829;53.286;10.434;2023-02-28T00:00:21;102944.25;;;-3.25;96.95
73558;BME280;61829;53.286;10.434;2023-02-28T00:03:07;102942.59;;;-3.29;96.88
73558;BME280;61829;53.286;10.434;2023-02-28T00:05:33;102942.66;;;-3.30;96.96
73558;BME280;61829;53.286;10.434;2023-02-28T00:07:59;102941.91;;;-3.35;97.08
73558;BME280;61829;53.286;10.434;2023-02-28T00:10:28;102946.41;;;-3.39;96.96
73558;BME280;61829;53.286;10.434;2023-02-28T00:12:56;102949.06;;;-3.41;97.12
73558;BME280;61829;53.286;10.434;2023-02-28T00:15:24;102946.34;;;-3.38;97.60
73558;BME280;61829;53.286;10.434;2023-02-28T00:17:50;102942.03;;;-3.40;97.23
73558;BME280;61829;53.286;10.434;2023-02-28T00:20:17;102949.13;;;-3.42;96.94
73558;BME280;61829;53.286;10.434;2023-02-28T00:22:45;102947.38;;;-3.43;97.65
73558;BME280;61829;53.286;10.434;2023-02-28T00:25:14;102957.13;;;-3.45;97.10
73558;BME280;61829;53.286;10.434;2023-02-28T00:27:41;102947.56;;;-3.49;97.10
73558;BME280;61829;53.286;10.434;2023-02-28T00:30:10;102947.59;;;-3.51;97.33
73558;BME280;61829;53.286;10.434;2023-02-28T00:32:37;102953.81;;;-3.53;97.12
73558;BME280;61829;53.286;10.434;2023-02-28T00:35:04;102948.63;;;-3.56;97.30
73558;BME280;61829;53.286;10.434;2023-02-28T00:37:30;102953.06;;;-3.58;97.27
73558;BME280;61829;53.286;10.434;2023-02-28T00:39:56;102945.19;;;-3.60;97.28
73558;BME280;61829;53.286;10.434;2023-02-28T00:42:22;102947.84;;;-3.60;97.50
73558;BME280;61829;53.286;10.434;2023-02-28T00:44:49;102943.50;;;-3.63;97.82
73558;BME280;61829;53.286;10.434;2023-02-28T00:47:14;102950.53;;;-3.62;98.12
73558;BME280;61829;53.286;10.434;2023-02-28T00:49:41;102961.94;;;-3.63;97.79
73558;BME280;61829;53.286;10.434;2023-02-28T00:52:07;102967.31;;;-3.66;97.38
73558;BME280;61829;53.286;10.434;2023-02-28T00:54:33;102967.38;;;-3.69;97.23
73558;BME280;61829;53.286;10.434;2023-02-28T00:56:59;102969.16;;;-3.69;97.99
73558;BME280;61829;53.286;10.434;2023-02-28T00:59:25;102957.75;;;-3.70;97.84
73558;BME280;61829;53.286;10.434;2023-02-28T01:01:50;102967.47;;;-3.72;97.72
73558;BME280;61829;53.286;10.434;2023-02-28T01:04:17;102962.19;;;-3.72;97.77
73558;BME280;61829;53.286;10.434;2023-02-28T01:06:43;102963.13;;;-3.73;97.89
73558;BME280;61829;53.286;10.434;2023-02-28T01:09:10;102965.75;;;-3.73;97.48
73558;BME280;61829;53.286;10.434;2023-02-28T01:11:36;102977.16;;;-3.72;97.98
73558;BME280;61829;53.286;10.434;2023-02-28T01:14:02;102970.03;;;-3.69;98.49
73558;BME280;61829;53.286;10.434;2023-02-28T01:16:30;102966.50;;;-3.68;98.69
73558;BME280;61829;53.286;10.434;2023-02-28T01:18:56;102968.13;;;-3.64;98.57
73558;BME280;61829;53.286;10.434;2023-02-28T01:21:22;102967.13;;;-3.59;98.72
73558;BME280;61829;53.286;10.434;2023-02-28T01:23:49;102973.31;;;-3.59;98.54
73558;BME280;61829;53.286;10.434;2023-02-28T01:26:19;102967.94;;;-3.56;98.30
73558;BME280;61829;53.286;10.434;2023-02-28T01:28:47;102967.00;;;-3.53;98.63
73558;BME280;61829;53.286;10.434;2023-02-28T01:31:13;102962.59;;;-3.53;98.80
73558;BME280;61829;53.286;10.434;2023-02-28T01:33:40;102968.69;;;-3.51;98.85
73558;BME280;61829;53.286;10.434;2023-02-28T01:36:10;102958.16;;;-3.51;98.93
73558;BME280;61829;53.286;10.434;2023-02-28T01:38:37;102959.00;;;-3.50;99.07
73558;BME280;61829;53.286;10.434;2023-02-28T01:41:03;102956.31;;;-3.49;98.96
73558;BME280;61829;53.286;10.434;2023-02-28T01:43:32;102957.16;;;-3.48;98.74
73558;BME280;61829;53.286;10.434;2023-02-28T01:45:58;102951.03;;;-3.49;98.36
73558;BME280;61829;53.286;10.434;2023-02-28T01:48:35;102951.97;;;-3.50;98.34
73558;BME280;61829;53.286;10.434;2023-02-28T01:51:10;102951.09;;;-3.50;98.41
73558;BME280;61829;53.286;10.434;2023-02-28T01:53:42;102952.00;;;-3.51;98.37
73558;BME280;61829;53.286;10.434;2023-02-28T01:56:12;102949.41;;;-3.53;98.61
73558;BME280;61829;53.286;10.434;2023-02-28T01:58:39;102951.19;;;-3.53;98.17
73558;BME280;61829;53.286;10.434;2023-02-28T02:01:05;102942.41;;;-3.54;98.16
73558;BME280;61829;53.286;10.434;2023-02-28T02:03:31;102943.38;;;-3.56;98.13
73558;BME280;61829;53.286;10.434;2023-02-28T02:05:57;102944.31;;;-3.59;97.77
73558;BME280;61829;53.286;10.434;2023-02-28T02:08:25;102946.97;;;-3.61;97.95
73558;BME280;61829;53.286;10.434;2023-02-28T02:10:57;102944.44;;;-3.64;98.11
73558;BME280;61829;53.286;10.434;2023-02-28T02:18:56;102947.41;;;-3.76;97.59
73558;BME280;61829;53.286;10.434;2023-02-28T02:24:24;102945.88;;;-3.86;97.63
73558;BME280;61829;53.286;10.434;2023-02-28T02:27:09;102947.78;;;-3.91;97.86
73558;BME280;61829;53.286;10.434;2023-02-28T02:35:40;102950.66;;;-4.00;97.96
73558;BME280;61829;53.286;10.434;2023-02-28T02:38:33;102942.97;;;-4.10;97.14
73558;BME280;61829;53.286;10.434;2023-02-28T02:44:10;102947.66;;;-4.21;97.75
73558;BME280;61829;53.286;10.434;2023-02-28T02:46:41;102948.59;;;-4.25;97.92
73558;BME280;61829;53.286;10.434;2023-02-28T02:49:24;102946.03;;;-4.26;97.58
73558;BME280;61829;53.286;10.434;2023-02-28T02:51:53;102944.28;;;-4.28;98.18
73558;BME280;61829;53.286;10.434;2023-02-28T02:54:28;102939.09;;;-4.31;98.50
73558;BME280;61829;53.286;10.434;2023-02-28T02:56:58;102934.81;;;-4.35;98.38
73558;BME280;61829;53.286;10.434;2023-02-28T02:59:25;102937.47;;;-4.36;98.31
73558;BME280;61829;53.286;10.434;2023-02-28T03:02:00;102940.16;;;-4.38;98.37
73558;BME280;61829;53.286;10.434;2023-02-28T03:04:32;102944.63;;;-4.41;98.09
73558;BME280;61829;53.286;10.434;2023-02-28T03:07:00;102944.66;;;-4.43;97.95
73558;BME280;61829;53.286;10.434;2023-02-28T03:09:26;102949.97;;;-4.44;98.20
73558;BME280;61829;53.286;10.434;2023-02-28T03:11:54;102935.91;;;-4.45;98.13
73558;BME280;61829;53.286;10.434;2023-02-28T03:14:33;102939.50;;;-4.47;98.30
73558;BME280;61829;53.286;10.434;2023-02-28T03:30:35;102946.84;;;-4.62;98.43
73558;BME280;61829;53.286;10.434;2023-02-28T03:33:11;102946.91;;;-4.65;98.40
73558;BME280;61829;53.286;10.434;2023-02-28T03:36:12;102951.34;;;-4.67;98.92
73558;BME280;61829;53.286;10.434;2023-02-28T03:38:49;102954.00;;;-4.68;98.67
73558;BME280;61829;53.286;10.434;2023-02-28T03:41:40;102958.47;;;-4.72;98.71
73558;BME280;61829;53.286;10.434;2023-02-28T03:44:21;102956.78;;;-4.76;98.22
73558;BME280;61829;53.286;10.434;2023-02-28T03:49:46;102957.00;;;-4.85;97.86
73558;BME280;61829;53.286;10.434;2023-02-28T03:52:14;102960.63;;;-4.89;98.04
73558;BME280;61829;53.286;10.434;2023-02-28T03:54:47;102954.50;;;-4.91;98.55
73558;BME280;61829;53.286;10.434;2023-02-28T03:57:32;102963.31;;;-4.92;98.96
73558;BME280;61829;53.286;10.434;2023-02-28T04:00:08;102971.22;;;-4.94;98.51
73558;BME280;61829;53.286;10.434;2023-02-28T04:02:37;102977.41;;;-4.97;98.90
73558;BME280;61829;53.286;10.434;2023-02-28T04:05:04;102959.84;;;-4.94;98.83
73558;BME280;61829;53.286;10.434;2023-02-28T04:07:33;102963.34;;;-4.96;98.77
73558;BME280;61829;53.286;10.434;2023-02-28T04:10:02;102965.97;;;-4.96;99.11
73558;BME280;61829;53.286;10.434;2023-02-28T04:12:28;102970.44;;;-4.99;98.45
73558;BME280;61829;53.286;10.434;2023-02-28T04:14:55;102967.94;;;-5.04;98.34
73558;BME280;61829;53.286;10.434;2023-02-28T04:17:20;102971.47;;;-5.06;98.41
73558;BME280;61829;53.286;10.434;2023-02-28T04:19:46;102969.78;;;-5.09;98.24
73558;BME280;61829;53.286;10.434;2023-02-28T04:22:12;102968.94;;;-5.11;98.29
73558;BME280;61829;53.286;10.434;2023-02-28T04:24:39;102968.09;;;-5.13;98.85
73558;BME280;61829;53.286;10.434;2023-02-28T04:27:06;102962.03;;;-5.15;98.63
73558;BME280;61829;53.286;10.434;2023-02-28T04:29:32;102963.75;;;-5.15;98.98
73558;BME280;61829;53.286;10.434;2023-02-28T04:31:59;102968.16;;;-5.16;99.24
73558;BME280;61829;53.286;10.434;2023-02-28T04:34:27;102964.69;;;-5.18;99.08
73558;BME280;61829;53.286;10.434;2023-02-28T04:36:54;102967.38;;;-5.21;98.63
73558;BME280;61829;53.286;10.434;2023-02-28T04:39:21;102968.31;;;-5.24;98.35
73558;BME280;61829;53.286;10.434;2023-02-28T04:41:47;102969.19;;;-5.23;98.49
73558;BME280;61829;53.286;10.434;2023-02-28T04:44:14;102970.94;;;-5.24;99.01
73558;BME280;61829;53.286;10.434;2023-02-28T04:46:40;102963.09;;;-5.25;98.30
73558;BME280;61829;53.286;10.434;2023-02-28T04:49:06;102978.00;;;-5.27;98.84
73558;BME280;61829;53.286;10.434;2023-02-28T04:51:32;102979.81;;;-5.29;98.35
73558;BME280;61829;53.286;10.434;2023-02-28T04:53:58;102966.75;;;-5.34;98.39
73558;BME280;61829;53.286;10.434;2023-02-28T04:56:23;102978.19;;;-5.35;98.62
73558;BME280;61829;53.286;10.434;2023-02-28T04:58:49;102975.56;;;-5.38;98.66
73558;BME280;61829;53.286;10.434;2023-02-28T05:01:30;102971.28;;;-5.40;98.46
73558;BME280;61829;53.286;10.434;2023-02-28T05:03:58;102973.91;;;-5.42;98.18
73558;BME280;61829;53.286;10.434;2023-02-28T05:06:26;102979.19;;;-5.44;98.32
73558;BME280;61829;53.286;10.434;2023-02-28T05:08:53;102979.22;;;-5.45;98.42
73558;BME280;61829;53.286;10.434;2023-02-28T05:11:30;102971.31;;;-5.44;99.18
73558;BME280;61829;53.286;10.434;2023-02-28T05:14:04;102975.69;;;-5.43;99.29
73558;BME280;61829;53.286;10.434;2023-02-28T05:16:31;102975.69;;;-5.43;99.77
73558;BME280;61829;53.286;10.434;2023-02-28T05:18:58;102977.47;;;-5.45;98.83
73558;BME280;61829;53.286;10.434;2023-02-28T05:23:55;102977.47;;;-5.45;98.91
73558;BME280;61829;53.286;10.434;2023-02-28T05:26:22;102980.97;;;-5.44;99.60
73558;BME280;61829;53.286;10.434;2023-02-28T05:28:48;102986.19;;;-5.43;99.07
73558;BME280;61829;53.286;10.434;2023-02-28T05:31:14;102982.72;;;-5.43;98.99
73558;BME280;61829;53.286;10.434;2023-02-28T05:33:41;102985.41;;;-5.46;99.00
73558;BME280;61829;53.286;10.434;2023-02-28T05:36:07;102986.31;;;-5.49;99.39
73558;BME280;61829;53.286;10.434;2023-02-28T05:38:33;102988.94;;;-5.50;98.81
73558;BME280;61829;53.286;10.434;2023-02-28T05:40:59;102977.66;;;-5.54;98.46
73558;BME280;61829;53.286;10.434;2023-02-28T05:43:25;102986.41;;;-5.55;98.43
73558;BME280;61829;53.286;10.434;2023-02-28T05:45:51;102988.22;;;-5.57;98.76
73558;BME280;61829;53.286;10.434;2023-02-28T05:48:16;102980.34;;;-5.58;98.76
73558;BME280;61829;53.286;10.434;2023-02-28T05:50:43;102987.38;;;-5.60;98.73
73558;BME280;61829;53.286;10.434;2023-02-28T05:53:11;102983.00;;;-5.60;98.60
73558;BME280;61829;53.286;10.434;2023-02-28T05:55:37;102983.88;;;-5.61;99.14
73558;BME280;61829;53.286;10.434;2023-02-28T05:58:04;102981.31;;;-5.64;98.32
73558;BME280;61829;53.286;10.434;2023-02-28T06:00:30;102999.69;;;-5.64;98.19
73558;BME280;61829;53.286;10.434;2023-02-28T06:02:56;102999.75;;;-5.67;98.19
73558;BME280;61829;53.286;10.434;2023-02-28T06:05:25;102998.91;;;-5.69;98.22
73558;BME280;61829;53.286;10.434;2023-02-28T06:07:51;102990.22;;;-5.71;97.91
73558;BME280;61829;53.286;10.434;2023-02-28T06:10:17;102994.59;;;-5.72;98.58
73558;BME280;61829;53.286;10.434;2023-02-28T06:12:43;102998.09;;;-5.73;97.79
73558;BME280;61829;53.286;10.434;2023-02-28T06:15:14;103006.88;;;-5.74;98.20
73558;BME280;61829;53.286;10.434;2023-02-28T06:17:41;102994.63;;;-5.75;97.90
73558;BME280;61829;53.286;10.434;2023-02-28T06:20:08;102992.00;;;-5.75;97.62
73558;BME280;61829;53.286;10.434;2023-02-28T06:22:36;102990.28;;;-5.76;98.50
73558;BME280;61829;53.286;10.434;2023-02-28T06:25:03;102995.53;;;-5.74;98.00
73558;BME280;61829;53.286;10.434;2023-02-28T06:27:30;103004.22;;;-5.72;98.32
73558;BME280;61829;53.286;10.434;2023-02-28T06:29:56;103004.19;;;-5.71;98.47
73558;BME280;61829;53.286;10.434;2023-02-28T06:32:22;103019.09;;;-5.71;98.18
73558;BME280;61829;53.286;10.434;2023-02-28T06:35:09;103019.91;;;-5.69;98.08
73558;BME280;61829;53.286;10.434;2023-02-28T06:37:36;103024.25;;;-5.65;98.54
73558;BME280;61829;53.286;10.434;2023-02-28T06:40:01;103012.84;;;-5.64;98.95
73558;BME280;61829;53.286;10.434;2023-02-28T06:42:28;103019.78;;;-5.60;98.31
73558;BME280;61829;53.286;10.434;2023-02-28T06:44:56;103021.50;;;-5.59;98.27
73558;BME280;61829;53.286;10.434;2023-02-28T06:47:22;103022.34;;;-5.57;98.62
73558;BME280;61829;53.286;10.434;2023-02-28T06:49:48;103025.78;;;-5.53;98.84
73558;BME280;61829;53.286;10.434;2023-02-28T06:52:14;103030.13;;;-5.51;99.65
73558;BME280;61829;53.286;10.434;2023-02-28T06:54:40;103038.75;;;-5.44;99.90
73558;BME280;61829;53.286;10.434;2023-02-28T06:57:07;103040.41;;;-5.38;99.82
73558;BME280;61829;53.286;10.434;2023-02-28T06:59:33;103033.28;;;-5.32;100.00
73558;BME280;61829;53.286;10.434;2023-02-28T07:01:58;103043.63;;;-5.24;100.00
73558;BME280;61829;53.286;10.434;2023-02-28T07:04:24;103040.88;;;-5.15;100.00
73558;BME280;61829;53.286;10.434;2023-02-28T07:06:51;103044.19;;;-5.07;100.00
73558;BME280;61829;53.286;10.434;2023-02-28T07:09:16;103049.28;;;-4.98;100.00
73558;BME280;61829;53.286;10.434;2023-02-28T07:11:42;103046.44;;;-4.87;100.00
73558;BME280;61829;53.286;10.434;2023-02-28T07:14:08;103044.50;;;-4.77;100.00
73558;BME280;61829;53.286;10.434;2023-02-28T07:16:35;103041.59;;;-4.63;100.00
73558;BME280;61829;53.286;10.434;2023-02-28T07:19:00;103044.69;;;-4.44;100.00
73558;BME280;61829;53.286;10.434;2023-02-28T07:21:26;103038.63;;;-4.11;100.00
73558;BME280;61829;53.286;10.434;2023-02-28T07:23:52;103041.97;;;-3.65;100.00
73558;BME280;61829;53.286;10.434;2023-02-28T07:26:19;103039.66;;;-3.12;100.00
73558;BME280;61829;53.286;10.434;2023-02-28T07:28:47;103041.63;;;-2.56;100.00
73558;BME280;61829;53.286;10.434;2023-02-28T07:31:13;103039.00;;;-2.00;100.00
73558;BME280;61829;53.286;10.434;2023-02-28T07:33:40;103040.72;;;-1.44;100.00
73558;BME280;61829;53.286;10.434;2023-02-28T07:36:12;103046.06;;;-0.96;100.00
73558;BME280;61829;53.286;10.434;2023-02-28T07:38:42;103043.34;;;-0.47;98.95
73558;BME280;61829;53.286;10.434;2023-02-28T07:41:09;103042.66;;;-0.07;96.96
73558;BME280;61829;53.286;10.434;2023-02-28T07:43:35;103036.78;;;0.29;95.76
73558;BME280;61829;53.286;10.434;2023-02-28T07:46:03;103038.88;;;0.63;94.12
73558;BME280;61829;53.286;10.434;2023-02-28T07:48:29;103036.63;;;0.95;91.78
73558;BME280;61829;53.286;10.434;2023-02-28T07:50:56;103035.31;;;1.24;89.06
73558;BME280;61829;53.286;10.434;2023-02-28T07:53:22;103048.13;;;1.54;86.71
73558;BME280;61829;53.286;10.434;2023-02-28T07:55:48;103039.00;;;1.78;82.97
73558;BME280;61829;53.286;10.434;2023-02-28T07:58:14;103040.41;;;2.05;79.89
73558;BME280;61829;53.286;10.434;2023-02-28T08:00:40;103026.91;;;2.27;78.12
73558;BME280;61829;53.286;10.434;2023-02-28T08:03:06;103032.09;;;2.47;76.54
73558;BME280;61829;53.286;10.434;2023-02-28T08:05:31;103037.41;;;2.64;75.21
73558;BME280;61829;53.286;10.434;2023-02-28T08:07:57;103037.06;;;2.88;74.41
73558;BME280;61829;53.286;10.434;2023-02-28T08:10:23;103031.41;;;3.11;73.43
73558;BME280;61829;53.286;10.434;2023-02-28T08:12:49;103036.34;;;3.35;72.74
73558;BME280;61829;53.286;10.434;2023-02-28T08:15:15;103037.81;;;3.56;71.05
73558;BME280;61829;53.286;10.434;2023-02-28T08:17:41;103026.94;;;3.77;70.36
73558;BME280;61829;53.286;10.434;2023-02-28T08:20:07;103035.59;;;3.96;69.76
73558;BME280;61829;53.286;10.434;2023-02-28T08:22:34;103039.81;;;4.16;67.95
73558;BME280;61829;53.286;10.434;2023-02-28T08:25:00;103041.19;;;4.38;67.64
73558;BME280;61829;53.286;10.434;2023-02-28T08:27:26;103034.66;;;4.43;67.19
73558;BME280;61829;53.286;10.434;2023-02-28T08:29:52;103031.75;;;4.62;66.84
73558;BME280;61829;53.286;10.434;2023-02-28T08:32:17;103036.16;;;4.78;66.00
73558;BME280;61829;53.286;10.434;2023-02-28T08:34:43;103039.22;;;4.86;65.71
73558;BME280;61829;53.286;10.434;2023-02-28T08:37:09;103034.56;;;4.89;64.79
73558;BME280;61829;53.286;10.434;2023-02-28T08:39:35;103041.34;;;4.95;64.51
73558;BME280;61829;53.286;10.434;2023-02-28T08:42:02;103045.75;;;5.10;63.62
73558;BME280;61829;53.286;10.434;2023-02-28T08:44:28;103042.03;;;5.27;63.17
73558;BME280;61829;53.286;10.434;2023-02-28T08:46:54;103046.63;;;5.39;62.63
73558;BME280;61829;53.286;10.434;2023-02-28T08:49:20;103040.69;;;5.49;61.25
73558;BME280;61829;53.286;10.434;2023-02-28T08:51:46;103039.81;;;5.62;62.14
73558;BME280;61829;53.286;10.434;2023-02-28T08:54:11;103036.81;;;5.81;60.87
73558;BME280;61829;53.286;10.434;2023-02-28T08:56:38;103041.41;;;5.79;59.75
73558;BME280;61829;53.286;10.434;2023-02-28T08:59:04;103040.81;;;5.74;60.04
73558;BME280;61829;53.286;10.434;2023-02-28T09:01:30;103043.88;;;5.82;59.14
73558;BME280;61829;53.286;10.434;2023-02-28T09:03:57;103048.31;;;5.69;59.02
73558;BME280;61829;53.286;10.434;2023-02-28T09:06:25;103045.25;;;5.61;58.98
73558;BME280;61829;53.286;10.434;2023-02-28T09:08:51;103045.06;;;5.64;59.83
73558;BME280;61829;53.286;10.434;2023-02-28T09:11:18;103053.56;;;5.71;61.20
73558;BME280;61829;53.286;10.434;2023-02-28T09:13:45;103042.88;;;5.56;61.31
73558;BME280;61829;53.286;10.434;2023-02-28T09:16:13;103045.38;;;5.45;62.29
73558;BME280;61829;53.286;10.434;2023-02-28T09:18:40;103047.47;;;5.40;62.09
73558;BME280;61829;53.286;10.434;2023-02-28T09:21:08;103048.50;;;5.52;62.51
73558;BME280;61829;53.286;10.434;2023-02-28T09:23:35;103047.34;;;5.70;62.30
73558;BME280;61829;53.286;10.434;2023-02-28T09:26:03;103051.69;;;5.85;61.40
73558;BME280;61829;53.286;10.434;2023-02-28T09:28:29;103047.88;;;6.04;61.79
73558;BME280;61829;53.286;10.434;2023-02-28T09:30:55;103049.16;;;6.11;60.15
73558;BME280;61829;53.286;10.434;2023-02-28T09:33:23;103048.31;;;6.11;60.22
73558;BME280;61829;53.286;10.434;2023-02-28T09:35:49;103047.09;;;6.02;60.12
73558;BME280;61829;53.286;10.434;2023-02-28T09:38:16;103051.00;;;6.11;59.48
73558;BME280;61829;53.286;10.434;2023-02-28T09:40:54;103049.31;;;6.22;59.15
73558;BME280;61829;53.286;10.434;2023-02-28T09:43:24;103050.69;;;6.15;58.46
73558;BME280;61829;53.286;10.434;2023-02-28T09:46:02;103054.03;;;6.19;57.22
73558;BME280;61829;53.286;10.434;2023-02-28T09:48:35;103050.94;;;6.25;57.73
73558;BME280;61829;53.286;10.434;2023-02-28T09:51:08;103056.00;;;6.29;55.86
73558;BME280;61829;53.286;10.434;2023-02-28T09:53:37;103046.25;;;6.28;55.62
73558;BME280;61829;53.286;10.434;2023-02-28T09:56:09;103052.00;;;6.22;55.26
73558;BME280;61829;53.286;10.434;2023-02-28T09:58:56;103050.06;;;6.12;53.92
73558;BME280;61829;53.286;10.434;2023-02-28T10:01:41;103061.81;;;6.09;55.27
73558;BME280;61829;53.286;10.434;2023-02-28T10:04:44;103059.13;;;6.09;53.78
73558;BME280;61829;53.286;10.434;2023-02-28T10:10:40;103067.13;;;6.23;53.17
73558;BME280;61829;53.286;10.434;2023-02-28T10:13:14;103065.16;;;6.40;51.18
73558;BME280;61829;53.286;10.434;2023-02-28T10:15:42;103069.31;;;6.44;50.99
73558;BME280;61829;53.286;10.434;2023-02-28T10:18:13;103070.09;;;6.46;49.28
73558;BME280;61829;53.286;10.434;2023-02-28T10:20:42;103060.09;;;6.35;51.39
73558;BME280;61829;53.286;10.434;2023-02-28T10:25:37;103054.72;;;6.35;48.86
73558;BME280;61829;53.286;10.434;2023-02-28T10:28:11;103064.81;;;6.44;50.02
73558;BME280;61829;53.286;10.434;2023-02-28T10:30:41;103060.78;;;6.64;49.83
73558;BME280;61829;53.286;10.434;2023-02-28T10:35:43;103055.81;;;7.11;48.13
73558;BME280;61829;53.286;10.434;2023-02-28T10:38:21;103049.38;;;7.39;48.82
73558;BME280;61829;53.286;10.434;2023-02-28T10:40:48;103053.34;;;7.33;46.56
73558;BME280;61829;53.286;10.434;2023-02-28T10:45:53;103047.19;;;7.44;47.17
73558;BME280;61829;53.286;10.434;2023-02-28T10:53:24;103042.28;;;7.38;46.22
73558;BME280;61829;53.286;10.434;2023-02-28T10:58:27;103037.13;;;7.48;46.81
73558;BME280;61829;53.286;10.434;2023-02-28T11:00:53;103051.31;;;7.37;46.78
73558;BME280;61829;53.286;10.434;2023-02-28T11:06:28;103046.97;;;7.47;48.60
73558;BME280;61829;53.286;10.434;2023-02-28T11:08:59;103050.50;;;7.60;46.46
73558;BME280;61829;53.286;10.434;2023-02-28T11:11:28;103046.88;;;7.61;45.70
73558;BME280;61829;53.286;10.434;2023-02-28T11:13:58;103041.16;;;7.66;46.25
73558;BME280;61829;53.286;10.434;2023-02-28T11:16:33;103050.34;;;7.75;47.02
73558;BME280;61829;53.286;10.434;2023-02-28T11:19:01;103047.44;;;7.78;46.24
73558;BME280;61829;53.286;10.434;2023-02-28T11:21:31;103036.16;;;7.85;45.70
73558;BME280;61829;53.286;10.434;2023-02-28T11:24:07;103037.75;;;7.88;46.06
73558;BME280;61829;53.286;10.434;2023-02-28T11:26:46;103034.63;;;7.94;44.96
73558;BME280;61829;53.286;10.434;2023-02-28T11:32:18;103036.78;;;7.89;45.56
73558;BME280;61829;53.286;10.434;2023-02-28T11:34:49;103043.97;;;7.88;45.85
73558;BME280;61829;53.286;10.434;2023-02-28T11:37:27;103036.22;;;7.60;44.60
73558;BME280;61829;53.286;10.434;2023-02-28T11:39:54;103033.22;;;7.64;48.05
73558;BME280;61829;53.286;10.434;2023-02-28T11:47:30;103028.75;;;8.13;49.24
73558;BME280;61829;53.286;10.434;2023-02-28T11:50:10;103031.97;;;8.18;45.89
73558;BME280;61829;53.286;10.434;2023-02-28T11:52:56;103025.69;;;8.18;44.63
73558;BME280;61829;53.286;10.434;2023-02-28T11:55:27;103020.09;;;8.21;45.88
73558;BME280;61829;53.286;10.434;2023-02-28T12:01:22;103015.47;;;7.75;43.91
73558;BME280;61829;53.286;10.434;2023-02-28T12:04:23;103008.28;;;7.75;44.47
73558;BME280;61829;53.286;10.434;2023-02-28T12:12:32;103011.72;;;7.28;44.46
73558;BME280;61829;53.286;10.434;2023-02-28T12:15:32;103009.22;;;7.37;47.75
73558;BME280;61829;53.286;10.434;2023-02-28T12:21:29;102992.31;;;7.61;45.22
73558;BME280;61829;53.286;10.434;2023-02-28T12:26:49;102991.44;;;7.97;45.29
73558;BME280;61829;53.286;10.434;2023-02-28T12:29:19;102992.94;;;8.01;43.76
73558;BME280;61829;53.286;10.434;2023-02-28T12:34:52;102989.13;;;7.93;45.66
73558;BME280;61829;53.286;10.434;2023-02-28T12:37:41;102977.97;;;7.86;45.41
73558;BME280;61829;53.286;10.434;2023-02-28T12:40:15;102978.38;;;7.93;45.20
73558;BME280;61829;53.286;10.434;2023-02-28T12:42:56;102969.06;;;7.85;43.75
73558;BME280;61829;53.286;10.434;2023-02-28T12:45:44;102968.25;;;7.72;43.71
73558;BME280;61829;53.286;10.434;2023-02-28T12:48:24;102962.63;;;7.75;44.79
73558;BME280;61829;53.286;10.434;2023-02-28T12:50:51;102952.13;;;7.72;45.59
73558;BME280;61829;53.286;10.434;2023-02-28T12:58:33;102937.88;;;7.72;44.60
73558;BME280;61829;53.286;10.434;2023-02-28T13:09:26;102924.00;;;7.54;45.38
73558;BME280;61829;53.286;10.434;2023-02-28T13:11:53;102916.81;;;7.54;45.52
73558;BME280;61829;53.286;10.434;2023-02-28T13:14:28;102912.75;;;7.49;44.47
73558;BME280;61829;53.286;10.434;2023-02-28T13:22:41;102917.66;;;7.18;45.36
73558;BME280;61829;53.286;10.434;2023-02-28T13:27:52;102933.34;;;7.11;45.41
73558;BME280;61829;53.286;10.434;2023-02-28T13:35:47;102931.97;;;7.06;45.67
73558;BME280;61829;53.286;10.434;2023-02-28T13:38:18;102930.22;;;7.17;46.60
73558;BME280;61829;53.286;10.434;2023-02-28T13:40:47;102925.63;;;7.19;47.53
73558;BME280;61829;53.286;10.434;2023-02-28T13:43:16;102922.94;;;7.19;46.31
73558;BME280;61829;53.286;10.434;2023-02-28T13:46:04;102917.25;;;7.11;46.12
73558;BME280;61829;53.286;10.434;2023-02-28T13:48:30;102927.00;;;7.12;46.28
73558;BME280;61829;53.286;10.434;2023-02-28T13:50:56;102929.06;;;7.09;45.86
73558;BME280;61829;53.286;10.434;2023-02-28T13:53:37;102922.50;;;7.13;46.57
73558;BME280;61829;53.286;10.434;2023-02-28T13:56:22;102914.34;;;7.14;46.11
73558;BME280;61829;53.286;10.434;2023-02-28T13:59:14;102922.31;;;7.03;46.46
73558;BME280;61829;53.286;10.434;2023-02-28T14:06:56;102909.75;;;7.04;45.85
73558;BME280;61829;53.286;10.434;2023-02-28T14:09:31;102921.03;;;6.96;45.59
73558;BME280;61829;53.286;10.434;2023-02-28T14:15:03;102918.03;;;7.01;46.65
73558;BME280;61829;53.286;10.434;2023-02-28T14:17:31;102923.72;;;6.96;44.98
73558;BME280;61829;53.286;10.434;2023-02-28T14:19:57;102912.81;;;6.86;45.95
73558;BME280;61829;53.286;10.434;2023-02-28T14:25:15;102917.00;;;6.78;44.36
73558;BME280;61829;53.286;10.434;2023-02-28T14:31:10;102918.19;;;6.61;46.00
73558;BME280;61829;53.286;10.434;2023-02-28T14:36:43;102920.22;;;6.57;47.37
73558;BME280;61829;53.286;10.434;2023-02-28T14:39:14;102929.31;;;6.55;46.06
73558;BME280;61829;53.286;10.434;2023-02-28T14:41:42;102917.09;;;6.38;46.54
73558;BME280;61829;53.286;10.434;2023-02-28T14:46:48;102923.63;;;6.34;47.39
73558;BME280;61829;53.286;10.434;2023-02-28T14:49:36;102924.56;;;6.20;45.37
73558;BME280;61829;53.286;10.434;2023-02-28T14:52:15;102924.13;;;6.13;45.21
73558;BME280;61829;53.286;10.434;2023-02-28T14:54:43;102925.31;;;6.09;44.77
73558;BME280;61829;53.286;10.434;2023-02-28T14:57:40;102915.75;;;6.05;44.38
73558;BME280;61829;53.286;10.434;2023-02-28T15:00:25;102920.75;;;5.97;44.89
73558;BME280;61829;53.286;10.434;2023-02-28T15:02:51;102915.78;;;5.91;45.54
73558;BME280;61829;53.286;10.434;2023-02-28T15:05:30;102916.00;;;5.88;45.43
73558;BME280;61829;53.286;10.434;2023-02-28T15:08:15;102920.50;;;5.87;45.28